createdAt,value
2022-10-13T00:00:53.093Z,19.79
2022-10-13T00:03:56.179Z,19.77
2022-10-13T00:06:58.913Z,19.78
2022-10-13T00:10:01.531Z,19.81
2022-10-13T00:13:04.543Z,19.82
2022-10-13T00:16:08.915Z,19.78
2022-10-13T00:19:14.973Z,19.79
2022-10-13T00:22:18.136Z,19.82
2022-10-13T00:25:20.918Z,19.77
2022-10-13T00:28:23.616Z,19.80
2022-10-13T00:31:28.690Z,19.77
2022-10-13T00:34:31.430Z,19.79
2022-10-13T00:37:34.141Z,19.77
2022-10-13T00:40:43.941Z,19.74
2022-10-13T00:43:54.409Z,19.71
2022-10-13T00:46:58.547Z,19.68
2022-10-13T00:50:01.892Z,19.67
2022-10-13T00:53:05.909Z,19.66
2022-10-13T00:56:10.544Z,19.62
2022-10-13T00:59:14.926Z,19.62
2022-10-13T01:02:19.293Z,19.62
2022-10-13T01:05:22.509Z,19.60
2022-10-13T01:08:27.030Z,19.56
2022-10-13T01:11:37.742Z,19.55
2022-10-13T01:14:46.135Z,19.58
2022-10-13T01:17:55.864Z,19.62
2022-10-13T01:21:08.682Z,19.62
2022-10-13T01:24:29.314Z,19.59
2022-10-13T01:27:39.593Z,19.59
2022-10-13T01:30:46.880Z,19.58
2022-10-13T01:33:54.341Z,19.56
2022-10-13T01:37:00.603Z,19.51
2022-10-13T01:40:06.396Z,19.49
2022-10-13T01:43:11.620Z,19.52
2022-10-13T01:46:18.886Z,19.53
2022-10-13T01:49:24.744Z,19.52
2022-10-13T01:52:32.199Z,19.50
2022-10-13T01:55:35.185Z,19.50
2022-10-13T01:58:38.152Z,19.51
2022-10-13T02:01:48.809Z,19.47
2022-10-13T02:04:55.682Z,19.46
2022-10-13T02:08:03.172Z,19.48
2022-10-13T02:11:10.905Z,19.47
2022-10-13T02:14:17.281Z,19.45
2022-10-13T02:17:21.701Z,19.48
2022-10-13T02:20:24.438Z,19.44
2022-10-13T02:23:27.993Z,19.42
2022-10-13T02:26:31.837Z,19.39
2022-10-13T02:29:34.517Z,19.38
2022-10-13T02:32:38.541Z,19.39
2022-10-13T02:35:41.487Z,19.34
2022-10-13T02:38:44.222Z,19.35
2022-10-13T02:41:46.876Z,19.33
2022-10-13T02:44:49.578Z,19.33
2022-10-13T02:47:53.613Z,19.31
2022-10-13T02:50:56.283Z,19.35
2022-10-13T02:53:58.949Z,19.34
2022-10-13T02:57:01.647Z,19.34
2022-10-13T03:00:05.719Z,19.31
2022-10-13T03:03:10.759Z,19.31
2022-10-13T03:06:13.395Z,19.30
2022-10-13T03:09:16.103Z,19.32
2022-10-13T03:12:19.042Z,19.33
2022-10-13T03:15:21.925Z,19.29
2022-10-13T03:18:26.089Z,19.28
2022-10-13T03:21:28.804Z,19.30
2022-10-13T03:24:32.437Z,19.30
2022-10-13T03:27:35.241Z,19.31
2022-10-13T03:30:37.946Z,19.26
2022-10-13T03:33:42.242Z,19.26
2022-10-13T03:36:44.926Z,19.25
2022-10-13T03:39:47.604Z,19.26
2022-10-13T03:42:50.310Z,19.25
2022-10-13T03:45:56.379Z,19.21
2022-10-13T03:49:00.402Z,19.19
2022-10-13T03:52:03.087Z,19.19
2022-10-13T03:55:06.151Z,19.19
2022-10-13T03:58:09.120Z,19.20
2022-10-13T04:01:13.751Z,19.18
2022-10-13T04:04:17.820Z,19.17
2022-10-13T04:07:20.764Z,19.17
2022-10-13T04:10:23.500Z,19.17
2022-10-13T04:13:26.192Z,19.15
2022-10-13T04:16:29.898Z,19.20
2022-10-13T04:19:33.906Z,19.17
2022-10-13T04:22:36.582Z,19.17
2022-10-13T04:25:39.885Z,19.16
2022-10-13T04:28:42.616Z,19.14
2022-10-13T04:31:45.360Z,19.14
2022-10-13T04:34:49.386Z,19.13
2022-10-13T04:37:52.080Z,19.14
2022-10-13T04:40:55.000Z,19.13
2022-10-13T04:43:57.700Z,19.18
2022-10-13T04:47:01.484Z,19.17
2022-10-13T04:50:06.085Z,19.17
2022-10-13T04:53:08.735Z,19.17
2022-10-13T04:56:12.612Z,19.21
2022-10-13T04:59:15.665Z,19.18
2022-10-13T05:02:18.667Z,19.23
2022-10-13T05:05:22.898Z,19.22
2022-10-13T05:08:26.037Z,19.24
2022-10-13T05:11:30.886Z,19.21
2022-10-13T05:14:34.993Z,19.23
2022-10-13T05:17:37.715Z,19.25
2022-10-13T05:20:41.738Z,19.25
2022-10-13T05:23:45.508Z,19.25
2022-10-13T05:26:48.175Z,19.24
2022-10-13T05:29:50.963Z,19.24
2022-10-13T05:32:54.106Z,19.22
2022-10-13T05:36:04.884Z,19.27
2022-10-13T05:39:08.428Z,19.28
2022-10-13T05:42:11.053Z,19.33
2022-10-13T05:45:14.275Z,19.35
2022-10-13T05:48:16.953Z,19.36
2022-10-13T05:51:23.477Z,19.37
2022-10-13T05:54:30.163Z,19.36
2022-10-13T05:57:34.448Z,19.43
2022-10-13T06:00:37.330Z,19.43
2022-10-13T06:03:42.076Z,19.43
2022-10-13T06:06:46.221Z,19.55
2022-10-13T06:09:49.721Z,19.51
2022-10-13T06:12:52.485Z,19.58
2022-10-13T06:15:55.136Z,19.54
2022-10-13T06:18:57.819Z,19.63
2022-10-13T06:22:03.770Z,19.58
2022-10-13T06:25:07.567Z,19.67
2022-10-13T06:28:10.286Z,19.55
2022-10-13T06:31:13.148Z,19.55
2022-10-13T06:34:15.927Z,19.50
2022-10-13T06:37:24.637Z,19.53
2022-10-13T06:40:29.038Z,19.54
2022-10-13T06:43:38.881Z,19.54
2022-10-13T06:46:42.434Z,19.58
2022-10-13T06:49:45.166Z,19.67
2022-10-13T06:52:49.168Z,19.78
2022-10-13T06:55:52.707Z,19.79
2022-10-13T06:58:55.572Z,19.71
2022-10-13T07:01:58.277Z,19.64
2022-10-13T07:05:00.925Z,19.69
2022-10-13T07:08:05.112Z,19.73
2022-10-13T07:11:14.562Z,19.68
2022-10-13T07:14:18.538Z,19.64
2022-10-13T07:17:21.746Z,19.66
2022-10-13T07:20:25.852Z,19.67
2022-10-13T07:23:30.328Z,19.66
2022-10-13T07:26:34.036Z,19.68
2022-10-13T07:29:36.858Z,19.70
2022-10-13T07:32:42.005Z,19.70
2022-10-13T07:35:44.805Z,19.70
2022-10-13T07:38:48.924Z,19.73
2022-10-13T07:41:51.576Z,19.68
2022-10-13T07:44:54.292Z,19.70
2022-10-13T07:47:57.222Z,19.71
2022-10-13T07:50:59.952Z,19.69
2022-10-13T07:54:04.006Z,19.78
2022-10-13T07:57:06.652Z,19.78
2022-10-13T08:00:10.552Z,19.77
2022-10-13T08:03:13.255Z,19.76
2022-10-13T08:06:15.999Z,19.76
2022-10-13T08:09:20.115Z,19.79
2022-10-13T08:12:22.973Z,19.80
2022-10-13T08:15:25.844Z,19.80
2022-10-13T08:18:28.928Z,19.84
2022-10-13T08:24:55.893Z,19.84
2022-10-13T08:28:00.636Z,19.88
2022-10-13T08:31:03.580Z,19.88
2022-10-13T08:34:06.404Z,19.95
2022-10-13T08:37:13.672Z,19.98
2022-10-13T08:40:20.492Z,20.04
2022-10-13T08:43:24.428Z,20.03
2022-10-13T08:46:29.649Z,19.64
2022-10-13T08:49:32.427Z,18.80
2022-10-13T08:52:45.263Z,18.28
2022-10-13T08:55:52.037Z,18.43
2022-10-13T08:58:56.704Z,18.28
2022-10-13T09:01:59.990Z,18.38
2022-10-13T09:05:04.499Z,18.40
2022-10-13T09:08:14.818Z,18.25
2022-10-13T09:11:18.933Z,18.40
2022-10-13T09:14:23.061Z,18.36
2022-10-13T09:17:27.419Z,19.32
2022-10-13T09:20:30.097Z,19.45
2022-10-13T09:23:32.745Z,19.45
2022-10-13T09:26:40.091Z,19.33
2022-10-13T09:29:43.605Z,19.43
2022-10-13T09:32:46.255Z,19.39
2022-10-13T09:35:49.791Z,19.29
2022-10-13T09:39:07.272Z,19.34
2022-10-13T09:42:20.487Z,19.41
2022-10-13T09:45:25.236Z,19.36
2022-10-13T09:48:28.684Z,19.44
2022-10-13T09:51:36.290Z,19.46
2022-10-13T09:54:42.868Z,19.48
2022-10-13T09:57:49.067Z,19.58
2022-10-13T10:01:10.356Z,19.59
2022-10-13T10:04:15.468Z,19.59
2022-10-13T10:07:21.842Z,19.55
2022-10-13T10:10:30.108Z,19.69
2022-10-13T10:13:34.215Z,19.75
2022-10-13T10:16:40.029Z,19.81
2022-10-13T10:19:50.426Z,19.81
2022-10-13T10:22:58.006Z,19.85
2022-10-13T10:26:02.492Z,19.76
2022-10-13T10:29:18.858Z,19.70
2022-10-13T10:32:27.554Z,19.75
2022-10-13T10:35:37.754Z,19.74
2022-10-13T10:38:43.193Z,19.66
2022-10-13T10:41:51.385Z,19.76
2022-10-13T10:44:56.156Z,19.81
2022-10-13T10:48:00.918Z,19.62
2022-10-13T10:51:06.459Z,19.61
2022-10-13T10:54:18.364Z,19.60
2022-10-13T10:57:27.771Z,19.60
2022-10-13T11:00:35.058Z,19.69
2022-10-13T11:03:41.809Z,19.63
2022-10-13T11:06:44.416Z,19.75
2022-10-13T11:10:01.925Z,19.82
2022-10-13T11:13:21.001Z,19.91
2022-10-13T11:16:28.625Z,20.03
2022-10-13T11:19:33.019Z,19.84
2022-10-13T11:22:35.683Z,19.79
2022-10-13T11:25:40.528Z,19.82
2022-10-13T11:28:46.401Z,19.89
2022-10-13T11:31:52.760Z,20.03
2022-10-13T11:34:58.801Z,19.94
2022-10-13T11:38:12.661Z,19.84
2022-10-13T11:41:22.221Z,19.73
2022-10-13T11:47:53.994Z,19.53
2022-10-13T11:51:05.039Z,19.85
2022-10-13T11:54:14.693Z,19.91
2022-10-13T11:57:21.772Z,19.86
2022-10-13T12:00:24.551Z,20.09
2022-10-13T12:03:30.067Z,20.06
2022-10-13T12:06:34.469Z,20.02
2022-10-13T12:09:48.253Z,20.06
2022-10-13T12:12:51.418Z,20.09
2022-10-13T12:16:03.151Z,19.98
2022-10-13T12:19:20.098Z,20.08
2022-10-13T12:22:23.307Z,19.98
2022-10-13T12:25:27.997Z,20.12
2022-10-13T12:28:31.924Z,20.10
2022-10-13T12:31:40.735Z,19.95
2022-10-13T12:34:47.049Z,20.01
2022-10-13T12:37:50.062Z,19.92
2022-10-13T12:40:54.524Z,20.08
2022-10-13T12:43:59.951Z,20.10
2022-10-13T12:47:05.450Z,20.09
2022-10-13T12:50:38.465Z,20.09
2022-10-13T12:53:42.772Z,19.91
2022-10-13T12:56:45.653Z,20.11
2022-10-13T12:59:48.431Z,19.95
2022-10-13T13:02:52.529Z,19.94
2022-10-13T13:06:08.399Z,19.98
2022-10-13T13:09:22.039Z,19.95
2022-10-13T13:12:28.117Z,19.96
2022-10-13T13:15:33.724Z,19.93
2022-10-13T13:18:39.741Z,20.11
2022-10-13T13:21:42.570Z,20.04
2022-10-13T13:24:47.118Z,20.05
2022-10-13T13:27:49.924Z,20.12
2022-10-13T13:30:52.588Z,20.17
2022-10-13T13:33:55.338Z,20.04
2022-10-13T13:36:58.017Z,20.02
2022-10-13T13:40:02.471Z,19.91
2022-10-13T13:43:05.216Z,19.87
2022-10-13T13:46:08.783Z,19.91
2022-10-13T13:49:12.642Z,19.86
2022-10-13T13:52:15.626Z,19.88
2022-10-13T13:55:19.740Z,19.94
2022-10-13T13:58:22.465Z,20.02
2022-10-13T14:01:25.840Z,20.06
2022-10-13T14:04:28.671Z,19.98
2022-10-13T14:07:31.400Z,19.99
2022-10-13T14:10:35.855Z,20.03
2022-10-13T14:13:38.509Z,19.99
2022-10-13T14:16:41.860Z,19.95
2022-10-13T14:19:44.603Z,19.95
2022-10-13T14:22:47.294Z,20.00
2022-10-13T14:25:51.320Z,20.04
2022-10-13T14:28:53.991Z,20.06
2022-10-13T14:31:56.823Z,20.11
2022-10-13T14:34:59.628Z,20.03
2022-10-13T14:38:02.360Z,19.93
2022-10-13T14:41:07.325Z,19.99
2022-10-13T14:44:13.605Z,19.92
2022-10-13T14:47:16.440Z,19.90
2022-10-13T14:50:19.242Z,19.82
2022-10-13T14:53:21.919Z,19.91
2022-10-13T14:56:26.906Z,19.86
2022-10-13T14:59:29.912Z,19.82
2022-10-13T15:02:32.627Z,19.79
2022-10-13T15:05:35.337Z,19.82
2022-10-13T15:08:37.993Z,19.84
2022-10-13T15:11:42.053Z,19.84
2022-10-13T15:14:44.802Z,19.82
2022-10-13T15:17:47.764Z,19.79
2022-10-13T15:20:50.890Z,19.82
2022-10-13T15:23:53.568Z,19.81
2022-10-13T15:26:57.616Z,19.78
2022-10-13T15:30:00.808Z,19.83
2022-10-13T15:33:03.798Z,19.80
2022-10-13T15:36:06.666Z,19.81
2022-10-13T15:39:10.554Z,19.91
2022-10-13T15:42:14.670Z,19.92
2022-10-13T15:45:17.870Z,19.83
2022-10-13T15:48:20.563Z,19.80
2022-10-13T15:51:24.561Z,19.80
2022-10-13T15:54:27.238Z,19.75
2022-10-13T15:57:31.294Z,19.96
2022-10-13T16:00:34.061Z,19.80
2022-10-13T16:03:36.860Z,19.81
2022-10-13T16:06:40.161Z,19.87
2022-10-13T16:09:42.852Z,19.88
2022-10-13T16:12:49.673Z,20.23
2022-10-13T16:16:02.698Z,20.35
2022-10-13T16:19:08.396Z,20.48
2022-10-13T16:22:13.676Z,20.50
2022-10-13T16:25:17.147Z,20.50
2022-10-13T16:28:21.233Z,20.58
2022-10-13T16:31:24.003Z,20.61
2022-10-13T16:34:26.908Z,20.68
2022-10-13T16:37:29.632Z,20.50
2022-10-13T16:40:32.548Z,20.46
2022-10-13T16:43:36.967Z,20.36
2022-10-13T16:46:40.217Z,20.50
2022-10-13T16:49:43.379Z,20.52
2022-10-13T16:52:47.462Z,20.37
2022-10-13T16:55:50.229Z,20.63
2022-10-13T16:58:57.133Z,20.55
2022-10-13T17:02:01.128Z,20.50
2022-10-13T17:05:03.926Z,20.50
2022-10-13T17:08:07.698Z,20.51
2022-10-13T17:11:11.522Z,20.51
2022-10-13T17:14:15.988Z,20.51
2022-10-13T17:17:19.155Z,20.51
2022-10-13T17:20:22.091Z,20.48
2022-10-13T17:23:26.391Z,20.51
2022-10-13T17:26:29.143Z,20.47
2022-10-13T17:29:34.520Z,20.43
2022-10-13T17:32:39.790Z,20.44
2022-10-13T17:35:42.447Z,20.41
2022-10-13T17:38:45.384Z,20.43
2022-10-13T17:41:48.505Z,20.40
2022-10-13T17:44:52.591Z,20.39
2022-10-13T17:47:58.678Z,20.36
2022-10-13T17:51:02.661Z,20.39
2022-10-13T17:54:07.468Z,20.35
2022-10-13T17:57:12.949Z,20.29
2022-10-13T18:00:18.509Z,20.27
2022-10-13T18:03:21.573Z,20.32
2022-10-13T18:06:24.376Z,20.34
2022-10-13T18:09:28.228Z,20.35
2022-10-13T18:12:31.102Z,20.35
2022-10-13T18:15:38.720Z,20.32
2022-10-13T18:18:43.757Z,20.29
2022-10-13T18:21:46.865Z,20.31
2022-10-13T18:24:56.040Z,20.34
2022-10-13T18:28:01.000Z,20.36
2022-10-13T18:31:06.888Z,20.33
2022-10-13T18:34:11.879Z,20.32
2022-10-13T18:37:15.825Z,20.32
2022-10-13T18:40:18.977Z,20.28
2022-10-13T18:43:22.895Z,20.29
2022-10-13T18:46:27.058Z,20.29
2022-10-13T18:49:31.787Z,20.29
2022-10-13T18:52:34.465Z,20.30
2022-10-13T18:55:37.350Z,20.37
2022-10-13T18:58:42.135Z,20.28
2022-10-13T19:01:46.560Z,20.26
2022-10-13T19:04:49.248Z,20.33
2022-10-13T19:07:52.447Z,20.32
2022-10-13T19:10:56.570Z,20.35
2022-10-13T19:13:59.593Z,20.34
2022-10-13T19:17:03.966Z,20.35
2022-10-13T19:20:10.661Z,20.34
2022-10-13T19:23:15.599Z,20.32
2022-10-13T19:26:19.723Z,20.30
2022-10-13T19:29:22.493Z,19.99
2022-10-13T19:32:26.583Z,19.90
2022-10-13T19:35:29.741Z,19.91
2022-10-13T19:38:32.439Z,19.93
2022-10-13T19:41:41.235Z,19.97
2022-10-13T19:44:44.033Z,19.91
2022-10-13T19:47:48.557Z,19.89
2022-10-13T19:50:51.238Z,19.90
2022-10-13T19:53:53.927Z,19.81
2022-10-13T19:56:56.669Z,20.01
2022-10-13T19:59:59.314Z,19.97
2022-10-13T20:03:04.818Z,19.96
2022-10-13T20:06:08.274Z,19.86
2022-10-13T20:09:11.000Z,19.86
2022-10-13T20:12:13.836Z,19.83
2022-10-13T20:15:16.526Z,19.80
2022-10-13T20:18:20.577Z,19.85
2022-10-13T20:21:23.684Z,19.82
2022-10-13T20:24:26.565Z,19.85
2022-10-13T20:27:29.287Z,19.82
2022-10-13T20:30:32.432Z,19.80
2022-10-13T20:33:36.433Z,19.93
2022-10-13T20:36:39.473Z,19.83
2022-10-13T20:39:42.280Z,19.78
2022-10-13T20:42:49.594Z,19.77
2022-10-13T20:45:59.369Z,19.75
2022-10-13T20:49:12.257Z,19.77
2022-10-13T20:52:15.542Z,19.78
2022-10-13T20:55:18.275Z,19.75
2022-10-13T20:58:20.973Z,19.70
2022-10-13T21:01:24.048Z,19.78
2022-10-13T21:04:28.088Z,19.69
2022-10-13T21:07:30.836Z,19.62
2022-10-13T21:10:36.549Z,19.64
2022-10-13T21:13:39.953Z,19.69
2022-10-13T21:16:42.670Z,19.65
2022-10-13T21:19:47.755Z,19.66
2022-10-13T21:22:50.451Z,19.65
2022-10-13T21:25:53.177Z,19.67
2022-10-13T21:28:56.256Z,19.68
2022-10-13T21:31:59.060Z,19.64
2022-10-13T21:35:03.115Z,19.65
2022-10-13T21:38:05.726Z,19.62
2022-10-13T21:41:08.856Z,19.56
2022-10-13T21:44:13.271Z,19.57
2022-10-13T21:47:15.953Z,19.64
2022-10-13T21:50:20.017Z,19.76
2022-10-13T21:53:22.658Z,19.79
2022-10-13T21:56:25.679Z,19.77
2022-10-13T21:59:28.418Z,19.75
2022-10-13T22:02:31.150Z,19.81
2022-10-13T22:05:35.632Z,19.80
2022-10-13T22:08:39.146Z,19.80
2022-10-13T22:11:42.176Z,19.76
2022-10-13T22:14:44.846Z,19.80
2022-10-13T22:17:47.497Z,19.80
2022-10-13T22:20:51.582Z,19.81
2022-10-13T22:23:56.855Z,19.79
2022-10-13T22:26:59.611Z,19.79
2022-10-13T22:30:02.371Z,19.76
2022-10-13T22:33:05.213Z,19.78
2022-10-13T22:36:09.814Z,19.79
2022-10-13T22:39:12.547Z,19.75
2022-10-13T22:42:15.230Z,19.76
2022-10-13T22:45:18.967Z,19.71
2022-10-13T22:48:21.656Z,19.73
2022-10-13T22:51:26.570Z,19.73
2022-10-13T22:54:29.219Z,19.68
2022-10-13T22:57:31.832Z,19.65
2022-10-13T23:00:35.346Z,19.66
2022-10-13T23:03:38.263Z,19.64
2022-10-13T23:06:42.359Z,19.70
2022-10-13T23:09:45.040Z,19.61
2022-10-13T23:12:47.709Z,19.66
2022-10-13T23:15:50.408Z,19.65
2022-10-13T23:18:53.147Z,19.68
2022-10-13T23:21:57.226Z,19.74
2022-10-13T23:24:59.887Z,19.70
2022-10-13T23:28:02.660Z,19.71
2022-10-13T23:31:06.848Z,19.69
2022-10-13T23:34:09.542Z,19.67
2022-10-13T23:37:13.507Z,19.74
2022-10-13T23:40:16.233Z,19.65
2022-10-13T23:43:19.199Z,19.62
2022-10-13T23:46:22.018Z,19.61
2022-10-13T23:49:24.770Z,19.59
2022-10-13T23:52:28.816Z,19.59
2022-10-13T23:55:31.447Z,19.66
2022-10-13T23:58:34.182Z,19.51
